Combienbar, Australia
Current Conditions -  °F | °C
As of 11:00 PM on Friday 19 Dec 2014 (Local Time) from YMER Reporting Station
Clear Clear  
Wind Chill: 57°   Ceiling: Unl
Heat Index: 57°   Visibility: 6mi
Dew Point: 46°   Wind: 3mph
Humidity: 67%   Direction: 230°SW
Pressure: 30.06"   Gusts: NA
Location:  37.42°S, 149.01°E
Report Text: YMER 191200Z AUTO 23003KT 9999 // NCD 14/08 Q1018
Loading
Personal Weather Stations






























Interactive Weather Map New forecast layout! Learn more

10-Day Weather Forecast

Advertisements
Track Severe Weather on mobile